Alvordton, OH

12:50 AM EDT on April 26, 2015 (GMT -0400)
Bridgewater | | Change Station
CLOSE
Current Station
Personal Weather Station
Location: Montpelier, OH
Elevation: 899 ft
Nearby Weather Stations

Elev 899 ft 41.63 °N, 84.66 °W | Updated 15 seconds ago

Mostly Cloudy
Mostly Cloudy
38.0 °F
Feels Like 38 °F
N
0.0
Wind Variable Wind from NNE
Gusts 1.5 mph

Today
High -- | Low -- °F
--% Chance of Precip.
Yesterday
High -- | Low -- °F
Precip. -- in
6:41 AM 8:30 PM
First Quarter, 52% visible
Pressure 29.81 in
Visibility 10.0 miles
Clouds Mostly Cloudy 10000 ft
Overcast 12000 ft
Windchill 38 °F
Dew Point 25 °F
Humidity 59%
Rainfall 0.00 in
Snow Depth Not available.
UV 12.6 out of 12
Pollen 6.60 out of 12
Air Quality Not available.
Flu Activity Regional
METAR KUSE 260435Z AUTO 04006KT 10SM BKN100 OVC120 05/M00 A2981 RMK AO2

More Conditions Fewer Conditions

Pressure 29.81 in
Visibility 10.0 miles
Clouds Mostly Cloudy 10000 ft
Overcast 12000 ft
Windchill 38 °F
Dew Point 25 °F
Humidity 59%
Rainfall 0.00 in
Snow Depth Not available.
UV 12.6 out of 12
Pollen 6.60 out of 12
Air Quality Not available.
Flu Activity Regional
METAR KUSE 260435Z AUTO 04006KT 10SM BKN100 OVC120 05/M00 A2981 RMK AO2

More Conditions Fewer Conditions

The full scope of the disaster following a powerful 7.8-magnitude earthquake in Nepal may not come into view for days, but global charities are already sending emergency aid. Click to see how you can help.

10-Day Weather Forecast

Almanac

Astronomy

Apr. 26, 2015 Rise Set
Actual Time
Civil Twilight
Nautical Twilight
Astronomical Twilight
Moon
Length of Visible Light
Length of Day
Tomorrow will be .
, % of the Moon is Illuminated

Today's Extremes

State Highs State Lows

Community

WunderPhotos

Upload Photos

1,816,938 photos uploaded!

WunderBlogs® & News

Nearby

Air Quality

  Air Quality AQ Index Pollutant
Not available.

Snow Depth

Station Depth Elevation

Earthquake Activity

City Distance Mag. Time & Date
Minimum magnitude displayed is 2.5.

Coastal Water Temperatures

Place Temperature

Stations

Nearby Weather Stations

Station Location Temp. Windchill Dew Point Humidity Wind Precip. Elev Updated Type